Time;durP1;ratioP1;P1;durP2;ratioP2;P2;SDS_P1;SDS_P2;PMS_P1;PMS_P2;Temp;Humidity;BMP_temperature;BMP_pressure;BME280_temperature;BME280_humidity;BME280_pressure;Samples;Min_cycle;Max_cycle;Signal;HPM_P1;HPM_P2
2022/07/16 00:03:02;;;;;;;7.15;1.27;;;;;;;-144.47;48.26;53215.59;4973123;28;20080;-61
2022/07/16 00:05:28;;;;;;;6.38;1.50;;;;;;;-144.47;48.37;53203.69;4977143;28;20062;-65
2022/07/16 00:07:54;;;;;;;6.97;1.27;;;;;;;-144.47;48.30;53181.84;4968562;28;20412;-64
2022/07/16 00:10:20;;;;;;;3.85;1.20;;;;;;;-144.47;48.26;53223.56;4975621;28;20096;-63
2022/07/16 00:12:45;;;;;;;3.35;1.05;;;;;;;-144.47;48.15;53195.75;4976805;28;20567;-63
2022/07/16 00:15:11;;;;;;;4.72;1.23;;;;;;;-144.47;48.06;53249.38;4970602;28;20388;-65
2022/07/16 00:17:36;;;;;;;3.72;1.10;;;;;;;-144.47;47.94;53171.91;4973427;28;20514;-61
2022/07/16 00:20:02;;;;;;;5.90;1.45;;;;;;;-144.47;47.92;53219.56;4973666;28;20049;-64
2022/07/16 00:22:28;;;;;;;5.47;1.50;;;;;;;-144.47;47.89;53257.31;4974718;28;20030;-66
2022/07/16 00:24:53;;;;;;;3.15;1.23;;;;;;;-144.47;48.03;53156.00;4974853;28;20057;-64
2022/07/16 00:27:19;;;;;;;7.65;1.75;;;;;;;-144.47;48.15;53221.56;4977692;28;20022;-64
2022/07/16 00:29:44;;;;;;;8.35;1.30;;;;;;;-144.47;48.15;53229.50;4970163;28;20441;-63
2022/07/16 00:32:09;;;;;;;6.85;1.35;;;;;;;-144.47;48.04;53237.44;4972444;28;20542;-62
2022/07/16 00:34:35;;;;;;;5.15;1.40;;;;;;;-144.47;48.15;53225.53;4974737;28;20523;-64
2022/07/16 00:37:00;;;;;;;5.85;1.95;;;;;;;-144.47;48.22;53203.69;4972244;28;20040;-64
2022/07/16 00:39:26;;;;;;;7.28;1.90;;;;;;;-144.47;48.43;53211.63;4976857;28;20030;-62
2022/07/16 00:41:51;;;;;;;4.78;1.60;;;;;;;-144.47;48.37;53225.53;4971705;28;20027;-63
2022/07/16 00:44:19;;;;;;;6.70;1.35;;;;;;;-144.47;48.34;53251.34;4974171;28;20105;-65
2022/07/16 00:46:48;;;;;;;5.32;1.50;;;;;;;-144.47;48.30;53209.66;4972946;28;20027;-63
2022/07/16 00:49:15;;;;;;;8.50;1.35;;;;;;;-144.47;48.39;53219.56;4970085;28;20054;-63
2022/07/16 00:51:44;;;;;;;4.85;1.10;;;;;;;-144.47;48.30;53225.53;4972297;28;20492;-62
2022/07/16 00:54:10;;;;;;;3.95;1.10;;;;;;;-144.47;48.19;53211.63;4979380;28;20045;-64
2022/07/16 00:56:35;;;;;;;2.10;0.80;;;;;;;-144.47;48.24;53207.66;4974060;28;20042;-62
2022/07/16 00:59:01;;;;;;;10.43;1.17;;;;;;;-144.47;48.22;53235.47;4972307;28;20046;-64
2022/07/16 01:01:26;;;;;;;7.15;1.27;;;;;;;-144.47;48.31;53235.47;4976744;28;20065;-62
2022/07/16 01:03:52;;;;;;;3.58;0.95;;;;;;;-144.47;48.36;53217.59;4971218;28;20117;-64
2022/07/16 01:06:17;;;;;;;3.63;1.20;;;;;;;-144.47;48.56;53235.47;4975263;28;20031;-62
2022/07/16 01:08:45;;;;;;;4.40;1.40;;;;;;;-144.47;48.63;53241.44;4974426;28;20408;-63
2022/07/16 01:11:14;;;;;;;3.60;1.40;;;;;;;-144.47;48.80;53227.53;4976874;28;20428;-62
2022/07/16 01:13:42;;;;;;;7.50;2.20;;;;;;;-144.47;48.95;53213.63;4970741;28;20408;-63
2022/07/16 01:16:08;;;;;;;5.72;1.70;;;;;;;-144.47;48.93;53243.41;4976814;28;20531;-63
2022/07/16 01:18:37;;;;;;;9.35;1.52;;;;;;;-144.47;49.00;53233.47;4976187;28;20480;-64
2022/07/16 01:21:03;;;;;;;4.43;1.07;;;;;;;-144.47;49.13;53199.72;4973389;28;20116;-62
2022/07/16 01:23:28;;;;;;;6.60;1.70;;;;;;;-144.47;49.33;53241.44;4972719;28;20295;-63
2022/07/16 01:25:53;;;;;;;5.20;1.40;;;;;;;-144.47;49.46;53221.56;4977892;28;20050;-64
2022/07/16 01:28:19;;;;;;;5.68;1.65;;;;;;;-144.47;49.47;53225.53;4976415;28;20030;-63
2022/07/16 01:30:45;;;;;;;8.75;2.03;;;;;;;-144.47;49.59;53219.56;4976466;28;20391;-62
2022/07/16 01:33:33;;;;;;;5.25;1.30;;;;;;;-144.47;49.64;53223.56;4970240;28;20528;-63
2022/07/16 01:36:02;;;;;;;1.75;0.93;;;;;;;-144.47;49.62;53209.66;4970854;28;20035;-64
2022/07/16 01:38:28;;;;;;;4.70;1.30;;;;;;;-144.47;49.53;53229.50;4974974;28;20518;-62
2022/07/16 01:40:54;;;;;;;5.53;1.33;;;;;;;-144.47;49.67;53211.63;4975213;28;20031;-65
2022/07/16 01:43:22;;;;;;;5.90;1.63;;;;;;;-144.47;49.86;53183.81;4975803;28;20034;-62
2022/07/16 01:45:48;;;;;;;8.82;1.70;;;;;;;-144.47;49.95;53205.66;4976589;28;20480;-61
2022/07/16 01:48:15;;;;;;;3.72;1.60;;;;;;;-144.47;50.13;53229.50;4979915;28;20087;-65
2022/07/16 01:50:42;;;;;;;4.88;1.40;;;;;;;-144.47;50.21;53243.41;4986459;28;20023;-61
2022/07/16 01:53:08;;;;;;;5.85;1.30;;;;;;;-144.47;50.29;53201.69;4977916;28;20026;-66
2022/07/16 01:55:34;;;;;;;8.88;1.73;;;;;;;-144.47;50.38;53223.56;4972336;28;20084;-65
2022/07/16 01:58:00;;;;;;;7.15;1.23;;;;;;;-144.47;50.44;53211.63;4988864;28;20105;-63
2022/07/16 02:00:28;;;;;;;8.18;1.40;;;;;;;-144.47;50.68;53243.41;4990152;28;20501;-65
2022/07/16 02:02:53;;;;;;;6.78;1.27;;;;;;;-144.47;50.95;53229.50;4984116;28;20030;-66
2022/07/16 02:05:18;;;;;;;6.55;1.45;;;;;;;-144.47;51.05;53239.44;4971187;28;20427;-63
2022/07/16 02:07:44;;;;;;;5.22;1.60;;;;;;;-144.47;51.06;53199.72;4984291;28;20029;-66
2022/07/16 02:10:10;;;;;;;5.55;1.52;;;;;;;-144.47;51.22;53237.44;4974175;28;20049;-65
2022/07/16 02:12:35;;;;;;;16.02;1.75;;;;;;;-144.47;51.52;53227.53;4987110;28;20041;-65
2022/07/16 02:15:01;;;;;;;7.95;1.65;;;;;;;-144.47;51.57;53231.50;4970131;28;20039;-63
2022/07/16 02:17:26;;;;;;;6.50;1.60;;;;;;;-144.47;51.74;53219.56;4969446;28;20392;-68
2022/07/16 02:19:51;;;;;;;16.27;1.98;;;;;;;-144.47;51.76;53229.50;4981603;28;20038;-64
2022/07/16 02:22:17;;;;;;;8.32;1.25;;;;;;;-144.47;52.06;53215.59;4971667;28;20026;-63
2022/07/16 02:24:42;;;;;;;13.98;1.45;;;;;;;-144.47;51.73;53199.72;4984065;28;20483;-63
2022/07/16 02:27:07;;;;;;;19.85;1.65;;;;;;;-144.47;52.21;53265.25;4975299;28;20026;-65
2022/07/16 02:29:33;;;;;;;17.63;1.70;;;;;;;-144.47;52.24;53221.56;4983755;28;20105;-66
2022/07/16 02:31:58;;;;;;;7.70;1.85;;;;;;;-144.47;52.19;53267.25;4992295;28;20080;-68
2022/07/16 02:34:24;;;;;;;10.30;1.73;;;;;;;-144.47;52.12;53225.53;4982210;28;20023;-66
2022/07/16 02:36:50;;;;;;;11.18;2.25;;;;;;;-144.47;52.04;53205.66;4972709;28;20030;-63
2022/07/16 02:39:15;;;;;;;17.15;1.90;;;;;;;-144.47;51.95;53251.34;4971584;28;20023;-66
2022/07/16 02:41:40;;;;;;;14.35;1.90;;;;;;;-144.47;52.16;53179.84;4977747;28;20032;-64
2022/07/16 02:44:06;;;;;;;13.63;1.52;;;;;;;-144.47;52.16;53227.53;4993229;28;20057;-65
2022/07/16 02:46:32;;;;;;;10.52;1.85;;;;;;;-144.47;52.39;53215.59;4979509;28;20022;-65
2022/07/16 02:48:57;;;;;;;20.50;1.83;;;;;;;-144.47;52.32;53209.66;4982230;28;20056;-65
2022/07/16 02:51:22;;;;;;;11.23;1.63;;;;;;;-144.47;52.09;53221.56;4989653;28;20049;-65
2022/07/16 02:53:48;;;;;;;9.88;1.80;;;;;;;-144.47;52.32;53205.66;4977182;28;20022;-64
2022/07/16 02:56:13;;;;;;;24.20;4.22;;;;;;;-144.47;52.40;53243.41;4975700;28;20038;-65
2022/07/16 02:58:39;;;;;;;13.85;1.67;;;;;;;-144.47;52.46;53265.25;4983566;28;20061;-63
2022/07/16 03:01:04;;;;;;;23.40;2.50;;;;;;;-144.47;52.42;53217.59;4992285;28;20026;-65
2022/07/16 03:03:29;;;;;;;7.78;1.83;;;;;;;-144.47;52.51;53223.56;4981988;28;20105;-64
2022/07/16 03:05:55;;;;;;;6.45;1.30;;;;;;;-144.47;52.22;53223.56;4973147;28;20034;-64
2022/07/16 03:08:20;;;;;;;9.65;2.00;;;;;;;-144.47;52.17;53253.34;4971705;28;20045;-66
2022/07/16 03:10:45;;;;;;;19.30;1.60;;;;;;;-144.47;51.80;53259.31;4973000;28;20438;-62
2022/07/16 03:13:11;;;;;;;10.15;1.33;;;;;;;-144.47;51.92;53241.44;5012319;23;20050;-67
2022/07/16 03:15:37;;;;;;;12.73;2.35;;;;;;;-144.47;51.93;53229.50;4971950;28;20488;-67
2022/07/16 03:18:02;;;;;;;6.63;1.83;;;;;;;-144.47;51.89;53265.25;4973689;28;20043;-68
2022/07/16 03:20:27;;;;;;;6.50;1.80;;;;;;;-144.47;51.77;53243.41;5011603;28;20021;-68
2022/07/16 03:22:53;;;;;;;13.57;1.90;;;;;;;-144.47;51.71;53211.63;4998133;28;20033;-69
2022/07/16 03:25:18;;;;;;;6.20;1.38;;;;;;;-144.47;51.64;53257.31;4996402;28;20022;-69
2022/07/16 03:27:44;;;;;;;7.63;1.38;;;;;;;-144.47;51.42;53205.66;4971884;28;20022;-70
2022/07/16 03:30:11;;;;;;;11.45;1.42;;;;;;;-144.47;51.48;53249.38;4979481;28;20026;-67
2022/07/16 03:32:37;;;;;;;9.40;1.88;;;;;;;-144.47;51.48;53263.28;5001557;28;20022;-69
2022/07/16 03:35:06;;;;;;;9.75;2.20;;;;;;;-144.47;51.37;53231.50;4991214;28;20528;-68
2022/07/16 03:37:32;;;;;;;6.57;1.88;;;;;;;-144.47;51.29;53231.50;4978696;28;20027;-68
2022/07/16 03:39:57;;;;;;;8.00;1.35;;;;;;;-144.47;51.19;53223.56;4999372;28;20029;-69
2022/07/16 03:42:23;;;;;;;4.25;1.38;;;;;;;-144.47;51.10;53211.63;4991371;28;20014;-69
2022/07/16 03:44:48;;;;;;;18.50;1.67;;;;;;;-144.47;50.89;53231.50;4998858;28;20479;-70
2022/07/16 03:47:14;;;;;;;9.63;1.90;;;;;;;-144.47;50.91;53247.38;4998017;28;20030;-69
2022/07/16 03:49:39;;;;;;;9.20;1.95;;;;;;;-144.47;50.80;53233.47;5003333;28;20026;-67
2022/07/16 03:52:05;;;;;;;5.63;1.42;;;;;;;-144.47;50.72;53235.47;4987661;28;20031;-68
2022/07/16 03:54:30;;;;;;;12.95;1.30;;;;;;;-144.47;50.74;53221.56;4989519;28;20037;-68
2022/07/16 03:56:55;;;;;;;16.17;2.05;;;;;;;-144.47;50.51;53209.66;5000872;28;20045;-67
2022/07/16 03:59:21;;;;;;;9.43;1.52;;;;;;;-144.47;50.50;53209.66;4998973;28;20060;-69
2022/07/16 04:01:46;;;;;;;17.88;2.03;;;;;;;-144.47;50.28;53241.44;5008172;28;20395;-68
2022/07/16 04:04:11;;;;;;;4.68;1.50;;;;;;;-144.47;50.36;53205.66;4978905;28;20018;-67
2022/07/16 04:06:37;;;;;;;6.45;1.35;;;;;;;-144.47;50.28;53195.75;4975215;28;20027;-69
2022/07/16 04:09:02;;;;;;;8.85;1.58;;;;;;;-144.47;50.00;53227.53;4985298;28;20018;-69
2022/07/16 04:11:28;;;;;;;6.25;1.70;;;;;;;-144.47;49.97;53225.53;4981518;28;20477;-69
2022/07/16 04:13:53;;;;;;;16.63;1.98;;;;;;;-144.47;49.93;53237.44;4989974;28;20037;-69
2022/07/16 04:16:19;;;;;;;8.43;1.67;;;;;;;-144.47;49.83;53241.44;4995980;28;20030;-68
2022/07/16 04:18:44;;;;;;;4.97;1.30;;;;;;;-144.47;49.66;53209.66;5010478;28;20041;-67
2022/07/16 04:21:09;;;;;;;8.45;2.20;;;;;;;-144.47;49.91;53219.56;4983668;28;20177;-69
2022/07/16 04:23:35;;;;;;;20.92;1.95;;;;;;;-144.47;49.52;53221.56;5003274;28;20313;-66
2022/07/16 04:26:00;;;;;;;14.82;1.50;;;;;;;-144.47;49.54;53213.63;4976728;28;20073;-69
2022/07/16 04:28:26;;;;;;;11.93;1.83;;;;;;;-144.47;49.75;53249.38;4990274;28;20468;-69
2022/07/16 04:30:51;;;;;;;5.78;1.50;;;;;;;-144.47;49.47;53261.28;5002194;28;20491;-69
2022/07/16 04:33:17;;;;;;;16.60;1.88;;;;;;;-144.47;49.64;53213.63;5002090;28;20557;-67
2022/07/16 04:35:42;;;;;;;13.20;1.30;;;;;;;-144.47;49.66;53239.44;5002774;28;20451;-68
2022/07/16 04:38:08;;;;;;;9.77;1.80;;;;;;;-144.47;49.80;53209.66;4991057;28;20056;-68
2022/07/16 04:40:33;;;;;;;9.30;2.10;;;;;;;-144.47;49.98;53213.63;5002357;28;20025;-68
2022/07/16 04:42:58;;;;;;;15.38;2.10;;;;;;;-144.47;50.03;53185.81;4991096;28;20165;-70
2022/07/16 04:45:24;;;;;;;6.93;1.63;;;;;;;-144.47;50.10;53237.44;5001207;28;20030;-68
2022/07/16 04:47:49;;;;;;;16.35;2.13;;;;;;;-144.47;50.24;53217.59;5009554;28;20491;-68
2022/07/16 04:50:15;;;;;;;12.88;1.48;;;;;;;-144.47;50.19;53233.47;4986664;28;20511;-70
2022/07/16 04:52:40;;;;;;;10.57;1.65;;;;;;;-144.47;50.25;53261.28;4983948;28;20029;-69
2022/07/16 04:55:06;;;;;;;13.73;1.75;;;;;;;-144.47;50.59;53231.50;4986389;28;20039;-70
2022/07/16 04:57:32;;;;;;;4.60;1.40;;;;;;;-144.47;51.37;53209.66;4997121;28;20113;-68
2022/07/16 04:59:57;;;;;;;11.80;1.90;;;;;;;-144.47;51.54;53229.50;4974729;28;20443;-69
2022/07/16 05:05:07;;;;;;;5.45;1.88;;;;;;;-144.47;52.77;53253.34;5000386;28;20041;-68
2022/07/16 05:07:32;;;;;;;7.28;1.27;;;;;;;-144.47;53.16;53237.44;4989725;28;20027;-67
2022/07/16 05:09:58;;;;;;;5.00;1.50;;;;;;;-144.47;53.21;53219.56;4989941;28;20109;-67
2022/07/16 05:12:24;;;;;;;13.05;1.63;;;;;;;-144.47;52.69;53173.88;4997818;28;20034;-69
2022/07/16 05:14:49;;;;;;;6.05;1.60;;;;;;;-144.47;52.52;53213.63;4982260;28;20046;-67
2022/07/16 05:17:14;;;;;;;3.45;1.23;;;;;;;-144.47;53.07;53213.63;4993262;28;20049;-66
2022/07/16 05:19:40;;;;;;;2.28;1.20;;;;;;;-144.47;50.68;53231.50;4984714;28;20503;-70
2022/07/16 05:22:05;;;;;;;3.88;1.40;;;;;;;-144.47;51.53;53221.56;4998000;28;20029;-68
2022/07/16 05:24:31;;;;;;;6.20;1.23;;;;;;;-144.47;50.83;53227.53;4983263;28;20019;-68
2022/07/16 05:26:56;;;;;;;3.15;1.15;;;;;;;-144.47;50.91;53213.63;5007775;28;20478;-67
2022/07/16 05:29:22;;;;;;;4.22;1.33;;;;;;;-144.47;50.40;53201.69;4996503;28;20500;-68
2022/07/16 05:31:47;;;;;;;3.20;1.30;;;;;;;-144.47;50.07;53197.72;5002080;28;20033;-68
2022/07/16 05:34:13;;;;;;;7.45;1.85;;;;;;;-144.47;49.20;53227.53;5002320;28;20025;-68
2022/07/16 05:36:38;;;;;;;13.00;1.35;;;;;;;-144.47;48.47;53225.53;4984875;28;20026;-66
2022/07/16 05:39:03;;;;;;;7.68;1.55;;;;;;;-144.47;48.83;53207.66;4982051;28;20154;-67
2022/07/16 05:41:29;;;;;;;3.05;1.20;;;;;;;-144.47;49.26;53205.66;4975995;28;20578;-69
2022/07/16 05:43:54;;;;;;;3.47;1.35;;;;;;;-144.47;48.53;53195.75;4997509;28;20030;-67
2022/07/16 05:46:19;;;;;;;8.70;2.05;;;;;;;-144.47;48.25;53251.34;5001808;28;20026;-69
2022/07/16 05:48:45;;;;;;;4.68;1.35;;;;;;;-144.47;48.10;53205.66;4990657;28;20518;-68
2022/07/16 05:51:10;;;;;;;6.63;1.48;;;;;;;-144.47;47.40;53201.69;5002311;28;20503;-67
2022/07/16 05:53:39;;;;;;;3.17;1.20;;;;;;;-144.47;46.76;53229.50;4988190;28;20484;-67
2022/07/16 05:56:04;;;;;;;6.63;1.50;;;;;;;-144.47;47.30;53197.72;4977650;28;20030;-68
2022/07/16 05:58:29;;;;;;;7.63;1.73;;;;;;;-144.47;47.09;53187.78;5004916;28;20030;-67
2022/07/16 06:00:55;;;;;;;5.78;1.30;;;;;;;-144.47;47.04;53213.63;4993329;28;20018;-69
2022/07/16 06:03:20;;;;;;;2.67;1.10;;;;;;;-144.47;46.20;53223.56;5006840;28;20097;-67
2022/07/16 06:05:46;;;;;;;3.80;1.00;;;;;;;-144.47;46.38;53235.47;5006639;28;20096;-69
2022/07/16 06:08:11;;;;;;;4.07;1.10;;;;;;;-144.47;46.03;53181.84;4992389;28;20061;-68
2022/07/16 06:10:37;;;;;;;9.98;1.42;;;;;;;-144.47;45.63;53181.84;4980369;28;20498;-66
2022/07/16 06:13:02;;;;;;;2.22;1.15;;;;;;;-144.47;44.63;53193.75;4984884;28;20156;-67
2022/07/16 06:15:27;;;;;;;3.65;1.40;;;;;;;-144.47;44.80;53193.75;5014194;28;20065;-68
2022/07/16 06:17:53;;;;;;;8.05;1.60;;;;;;;-144.47;44.17;53181.84;4995110;28;20029;-68
2022/07/16 06:20:18;;;;;;;6.00;1.23;;;;;;;-144.47;44.36;53211.63;4977209;28;20022;-68
2022/07/16 06:22:43;;;;;;;4.55;1.75;;;;;;;-144.47;43.86;53185.81;4979069;28;20030;-69
2022/07/16 06:25:09;;;;;;;5.40;1.17;;;;;;;-144.47;44.11;53211.63;4977528;28;20427;-68
2022/07/16 06:27:34;;;;;;;5.15;1.45;;;;;;;-144.47;43.72;53191.78;4997402;28;20029;-69
2022/07/16 06:30:04;;;;;;;6.93;1.50;;;;;;;-144.47;43.91;53205.66;4985927;28;20036;-69
2022/07/16 06:32:29;;;;;;;9.07;2.50;;;;;;;-144.47;44.16;53185.81;4988270;28;20030;-70
2022/07/16 06:34:55;;;;;;;5.85;1.52;;;;;;;-144.47;44.20;53171.91;5012168;28;20034;-70
2022/07/16 06:37:20;;;;;;;7.00;2.38;;;;;;;-144.47;44.07;53173.88;5010814;28;20087;-68
2022/07/16 06:39:45;;;;;;;2.67;1.05;;;;;;;-144.47;43.71;53171.91;4999628;28;20027;-68
2022/07/16 06:42:11;;;;;;;6.90;2.63;;;;;;;-144.47;43.44;53199.72;4998000;28;20018;-66
2022/07/16 06:44:38;;;;;;;3.28;1.30;;;;;;;-144.47;43.23;53203.69;4995429;28;20030;-66
2022/07/16 06:47:04;;;;;;;7.10;1.35;;;;;;;-144.47;42.94;53189.78;5020158;28;20394;-68
2022/07/16 06:49:29;;;;;;;3.28;1.48;;;;;;;-144.47;43.21;53193.75;4986987;28;20166;-68
2022/07/16 06:51:54;;;;;;;6.05;1.42;;;;;;;-144.47;42.98;53177.88;4985384;28;20488;-67
2022/07/16 06:54:20;;;;;;;6.50;1.10;;;;;;;-144.47;42.96;53219.56;4989724;28;20549;-69
2022/07/16 06:56:45;;;;;;;3.35;1.30;;;;;;;-144.47;43.02;53211.63;4997196;28;20057;-68
2022/07/16 06:59:10;;;;;;;3.38;1.10;;;;;;;-144.47;43.03;53189.78;4975710;28;20034;-67
2022/07/16 07:01:36;;;;;;;6.25;1.25;;;;;;;-144.47;42.84;53175.88;4985651;28;20121;-68
2022/07/16 07:04:01;;;;;;;9.02;1.40;;;;;;;-144.47;42.48;53144.09;4986577;28;20058;-66
2022/07/16 07:06:27;;;;;;;4.07;1.33;;;;;;;-144.47;42.32;53161.97;4993215;28;20030;-69
2022/07/16 07:08:52;;;;;;;6.35;1.40;;;;;;;-144.47;42.22;53165.94;4985766;28;20027;-69
2022/07/16 07:11:17;;;;;;;5.00;0.90;;;;;;;-144.47;41.96;53112.31;4991285;28;20172;-69
2022/07/16 07:13:43;;;;;;;4.82;1.40;;;;;;;-144.47;41.96;53169.91;4985509;28;20027;-68
2022/07/16 07:16:08;;;;;;;11.27;1.35;;;;;;;-144.47;41.57;53169.91;4997593;28;20018;-69
2022/07/16 07:18:34;;;;;;;4.85;1.30;;;;;;;-144.47;41.80;53142.09;4990140;28;20132;-66
2022/07/16 07:21:00;;;;;;;7.55;1.38;;;;;;;-144.47;41.51;53128.22;4989019;28;20020;-68
2022/07/16 07:23:26;;;;;;;7.60;1.10;;;;;;;-144.47;41.74;53171.91;4985546;28;20025;-70
2022/07/16 07:25:51;;;;;;;3.83;1.17;;;;;;;-144.47;41.88;53185.81;4987777;28;20027;-70
2022/07/16 07:28:17;;;;;;;5.28;1.33;;;;;;;-144.47;41.71;53158.00;4991225;28;20173;-69
2022/07/16 07:30:42;;;;;;;3.42;1.38;;;;;;;-144.47;41.67;53177.88;4991861;28;20027;-68
2022/07/16 07:33:08;;;;;;;9.77;1.20;;;;;;;-144.47;41.72;53118.28;4985681;28;20479;-68
2022/07/16 07:35:33;;;;;;;2.63;1.02;;;;;;;-144.47;41.76;53154.03;4984957;28;20052;-65
2022/07/16 07:37:59;;;;;;;6.15;1.23;;;;;;;-144.47;41.60;53183.81;4985693;28;20383;-67
2022/07/16 07:40:24;;;;;;;4.80;1.17;;;;;;;-144.47;41.33;53144.09;4984624;28;20042;-68
2022/07/16 07:42:49;;;;;;;5.90;1.15;;;;;;;-144.47;41.31;53136.16;4985810;28;20036;-67
2022/07/16 07:45:15;;;;;;;3.05;1.15;;;;;;;-144.47;41.09;53140.13;4997859;28;20273;-66
2022/07/16 07:47:40;;;;;;;4.20;1.63;;;;;;;-144.47;41.23;53179.84;4975659;28;20025;-69
2022/07/16 07:50:07;;;;;;;3.78;1.20;;;;;;;-144.47;41.46;53148.06;4971702;28;20027;-69
2022/07/16 07:52:33;;;;;;;8.57;1.58;;;;;;;-144.47;41.43;53161.97;4990219;28;20057;-67
2022/07/16 07:54:59;;;;;;;4.82;1.50;;;;;;;-144.47;41.44;53128.22;4990439;28;20033;-67
2022/07/16 07:57:24;;;;;;;5.82;1.25;;;;;;;-144.47;41.35;53161.97;4990449;28;20042;-66
2022/07/16 07:59:50;;;;;;;2.70;1.00;;;;;;;-144.47;41.45;53146.09;4990582;28;20351;-67
2022/07/16 08:02:15;;;;;;;4.68;1.63;;;;;;;-144.47;41.66;53110.31;4979662;28;20033;-68
2022/07/16 08:04:41;;;;;;;5.25;1.20;;;;;;;-144.47;41.50;53142.09;4974041;28;20037;-69
2022/07/16 08:07:06;;;;;;;11.20;1.20;;;;;;;-144.47;41.41;53150.06;4977014;28;20107;-67
2022/07/16 08:09:32;;;;;;;2.53;1.17;;;;;;;-144.47;41.38;53130.19;4986127;28;20057;-68
2022/07/16 08:11:57;;;;;;;7.20;1.23;;;;;;;-144.47;41.21;53140.13;4980144;28;20041;-68
2022/07/16 08:14:22;;;;;;;8.95;1.85;;;;;;;-144.47;41.37;53146.09;4981512;28;20441;-68
2022/07/16 08:16:48;;;;;;;5.95;1.52;;;;;;;-144.47;41.23;53150.06;4995681;28;20034;-66
2022/07/16 08:19:13;;;;;;;6.03;1.30;;;;;;;-144.47;41.27;53132.19;4983237;28;20551;-67
2022/07/16 08:21:39;;;;;;;4.07;1.13;;;;;;;-144.47;41.34;53130.19;4983544;28;20118;-69
2022/07/16 08:26:49;;;;;;;4.00;1.35;;;;;;;-144.47;41.67;53161.97;4997051;28;20100;-68
2022/07/16 08:29:14;;;;;;;9.50;2.05;;;;;;;-144.47;41.78;53185.81;5001252;28;20113;-69
2022/07/16 08:31:40;;;;;;;4.30;1.50;;;;;;;-144.47;42.30;53169.91;4989096;28;20500;-66
2022/07/16 08:34:05;;;;;;;11.07;1.35;;;;;;;-144.47;43.04;53183.81;4988743;28;20430;-71
2022/07/16 08:36:30;;;;;;;5.13;1.58;;;;;;;-144.47;43.04;53167.94;4989553;28;20113;-70
2022/07/16 08:38:56;;;;;;;6.68;1.50;;;;;;;-144.47;43.62;53142.09;4983278;28;20026;-70
2022/07/16 08:41:22;;;;;;;7.72;2.28;;;;;;;-144.47;44.63;53163.97;4980859;28;20027;-68
2022/07/16 08:43:48;;;;;;;7.43;1.75;;;;;;;-144.47;44.80;53152.03;4987270;28;20085;-69
2022/07/16 08:46:14;;;;;;;4.82;1.73;;;;;;;-144.47;45.06;53169.91;4983359;28;20527;-68
2022/07/16 08:48:40;;;;;;;5.90;1.52;;;;;;;-144.47;45.20;53165.94;4985982;28;20034;-66
2022/07/16 08:51:09;;;;;;;3.47;1.42;;;;;;;-144.47;46.18;53169.91;4989995;28;20157;-69
2022/07/16 08:53:37;;;;;;;5.15;1.80;;;;;;;-144.47;46.07;53152.03;4977531;28;20034;-68
2022/07/16 08:56:03;;;;;;;6.18;1.40;;;;;;;-144.47;46.10;53189.78;5003894;28;20106;-68
2022/07/16 08:58:30;;;;;;;5.70;1.70;;;;;;;-144.47;45.78;53167.94;4988808;28;20110;-69
2022/07/16 09:00:56;;;;;;;7.30;2.30;;;;;;;-144.47;45.61;53181.84;4978024;28;20027;-69
2022/07/16 09:03:21;;;;;;;6.03;1.75;;;;;;;-144.47;45.69;53173.88;4985366;28;20042;-70
2022/07/16 09:05:49;;;;;;;4.90;1.55;;;;;;;-144.47;45.74;53160.00;4984865;28;20026;-70
2022/07/16 09:08:19;;;;;;;4.60;1.73;;;;;;;-144.47;45.51;53175.88;4987481;28;20042;-67
2022/07/16 09:10:44;;;;;;;5.80;1.58;;;;;;;-144.47;45.52;53177.88;4995394;28;20342;-67
2022/07/16 09:13:10;;;;;;;8.48;1.55;;;;;;;-144.47;45.60;53177.88;5008109;23;20042;-66
2022/07/16 09:15:38;;;;;;;3.80;1.50;;;;;;;-144.47;45.37;53154.03;5000787;28;20053;-71
2022/07/16 09:18:20;;;;;;;7.00;1.40;;;;;;;-144.47;47.03;53132.19;5000297;28;20046;-68
2022/07/16 09:21:06;;;;;;;7.53;1.73;;;;;;;-144.47;48.29;53179.84;4988281;28;20105;-69
2022/07/16 09:23:38;;;;;;;7.03;1.85;;;;;;;-144.47;49.31;53199.72;5004734;28;20034;-70
2022/07/16 09:26:11;;;;;;;4.80;1.55;;;;;;;-144.47;49.14;53161.97;5008694;28;20074;-69
2022/07/16 09:28:47;;;;;;;5.68;1.70;;;;;;;-144.47;48.95;53185.81;4994881;28;20029;-67
2022/07/16 09:31:45;;;;;;;4.63;1.67;;;;;;;-144.47;48.54;53150.06;4994812;28;20106;-68
2022/07/16 09:34:13;;;;;;;3.30;1.42;;;;;;;-144.47;48.18;53191.78;4973176;28;20034;-70
2022/07/16 09:36:54;;;;;;;6.30;1.57;;;;;;;-144.47;47.82;53181.84;5005040;28;20080;-70
2022/07/16 09:39:19;;;;;;;6.40;1.58;;;;;;;-144.47;47.17;53181.84;4989032;28;20256;-71
2022/07/16 09:41:46;;;;;;;7.28;1.85;;;;;;;-144.47;47.29;53161.97;4972774;28;20022;-66
2022/07/16 09:44:17;;;;;;;5.53;1.63;;;;;;;-144.47;47.20;53209.66;4984196;28;20049;-68
2022/07/16 09:46:56;;;;;;;4.47;1.50;;;;;;;-144.47;47.27;53175.88;5011718;28;20033;-68
2022/07/16 09:49:21;;;;;;;5.07;1.50;;;;;;;-144.47;47.39;53199.72;4981841;28;20038;-70
2022/07/16 09:51:46;;;;;;;3.55;1.55;;;;;;;-144.47;47.48;53199.72;4982142;28;20356;-66
2022/07/16 09:54:26;;;;;;;7.07;1.55;;;;;;;-144.47;47.14;53163.97;4987430;28;20026;-72
2022/07/16 09:57:13;;;;;;;5.28;1.70;;;;;;;-144.47;46.75;53175.88;5004968;28;20045;-67
2022/07/16 09:59:39;;;;;;;5.15;1.85;;;;;;;-144.47;47.14;53177.88;5011176;28;20026;-68
2022/07/16 10:02:05;;;;;;;7.72;2.03;;;;;;;-144.47;47.10;53195.75;5010188;28;20030;-70
2022/07/16 10:04:30;;;;;;;4.30;1.67;;;;;;;-144.47;47.24;53195.75;4995872;28;20037;-68
2022/07/16 10:06:57;;;;;;;5.00;1.23;;;;;;;-144.47;47.40;53197.72;4985420;28;20425;-70
2022/07/16 10:09:24;;;;;;;3.05;1.20;;;;;;;-144.47;47.37;53158.00;4990474;28;20027;-70
2022/07/16 10:11:51;;;;;;;5.28;1.50;;;;;;;-144.47;47.01;53207.66;4988641;28;20038;-70
2022/07/16 10:14:17;;;;;;;6.93;1.15;;;;;;;-144.47;46.03;53160.00;4990055;28;20042;-70
2022/07/16 10:16:45;;;;;;;4.32;0.95;;;;;;;-144.47;45.38;53167.94;4988772;28;20022;-66
2022/07/16 10:19:12;;;;;;;3.15;1.20;;;;;;;-144.47;45.65;53128.22;4989855;28;20031;-69
2022/07/16 10:21:38;;;;;;;1.60;0.90;;;;;;;-144.47;46.03;53173.88;4989474;28;20026;-69
2022/07/16 10:24:13;;;;;;;3.83;1.00;;;;;;;-144.47;46.34;53158.00;4986037;28;20042;-68
2022/07/16 10:26:39;;;;;;;3.38;1.10;;;;;;;-144.47;46.30;53207.66;4985888;28;20443;-70
2022/07/16 10:29:08;;;;;;;5.07;1.05;;;;;;;-144.47;46.43;53185.81;4990725;28;20044;-69
2022/07/16 10:31:40;;;;;;;6.63;1.23;;;;;;;-144.47;46.36;53201.69;4987859;28;20365;-66
2022/07/16 10:34:15;;;;;;;4.88;1.55;;;;;;;-144.47;45.52;53189.78;4989938;28;20500;-69
2022/07/16 10:36:47;;;;;;;12.93;1.48;;;;;;;-144.47;45.22;53175.88;4989699;28;20092;-71
2022/07/16 10:39:16;;;;;;;5.63;1.10;;;;;;;-144.47;44.91;53183.81;4989242;28;20018;-70
2022/07/16 10:41:50;;;;;;;;;;;;;;;-144.47;44.78;53185.81;4990418;28;20021;-68
2022/07/16 10:44:17;;;;;;;2.90;1.10;;;;;;;-144.47;43.17;53205.66;4987259;28;19910;-70
2022/07/16 10:46:56;;;;;;;3.70;0.80;;;;;;;-144.47;42.70;53150.06;5005849;28;20038;-70
2022/07/16 10:49:23;;;;;;;1.42;0.80;;;;;;;-144.47;42.51;53154.03;4988836;28;20447;-70
2022/07/16 10:52:00;;;;;;;2.63;0.90;;;;;;;-144.47;43.04;53169.91;4989791;28;20503;-68
2022/07/16 10:54:26;;;;;;;1.40;0.90;;;;;;;-144.47;43.09;53167.94;4975142;28;20243;-70
2022/07/16 10:56:53;;;;;;;4.63;0.98;;;;;;;-144.47;43.16;53185.81;4987490;28;20238;-67
2022/07/16 10:59:26;;;;;;;4.40;1.10;;;;;;;-144.47;42.54;53181.84;4985169;28;20799;-70
2022/07/16 11:01:55;;;;;;;2.72;0.82;;;;;;;-144.47;42.22;53158.00;4971978;28;20075;-66
2022/07/16 11:04:31;;;;;;;4.95;0.80;;;;;;;-144.47;42.06;53138.13;4991948;28;20021;-70
2022/07/16 11:06:57;;;;;;;5.35;0.88;;;;;;;-144.47;41.94;53150.06;4996764;28;20029;-68
2022/07/16 11:09:29;;;;;;;4.00;1.02;;;;;;;-144.47;41.30;53150.06;4999855;28;20034;-68
2022/07/16 11:12:04;;;;;;;3.22;0.82;;;;;;;-144.47;41.00;53136.16;5002720;28;20034;-68
2022/07/16 11:14:30;;;;;;;3.63;1.00;;;;;;;-144.47;40.21;53179.84;4977929;28;20102;-69
2022/07/16 11:16:56;;;;;;;6.38;0.93;;;;;;;-144.47;39.40;53169.91;4970615;28;20105;-66
2022/07/16 11:19:21;;;;;;;3.08;0.90;;;;;;;-144.47;38.73;53114.31;5000395;28;20359;-68
2022/07/16 11:21:58;;;;;;;3.40;0.80;;;;;;;-144.47;37.78;53138.13;4989379;28;20033;-68